Time;durP1;ratioP1;P1;durP2;ratioP2;P2;SDS_P1;SDS_P2;PMS_P1;PMS_P2;Temp;Humidity;BMP_temperature;BMP_pressure;BME280_temperature;BME280_humidity;BME280_pressure;Samples;Min_cycle;Max_cycle;Signal;HPM_P1;HPM_P2
2022/03/01 00:01:26;;;;;;;3.70;3.40;;;25.70;46.90;;;;;;5053406;28;20438;-88
2022/03/01 00:03:53;;;;;;;3.47;3.17;;;25.70;46.90;;;;;;5053202;28;20937;-85
2022/03/01 00:06:20;;;;;;;4.03;3.63;;;25.80;46.90;;;;;;5053286;28;20442;-85
2022/03/01 00:08:47;;;;;;;3.53;3.10;;;25.70;46.90;;;;;;5053233;28;20960;-86
2022/03/01 00:11:14;;;;;;;3.73;3.43;;;25.70;46.90;;;;;;5053210;28;20445;-85
2022/03/01 00:13:40;;;;;;;3.60;3.30;;;25.70;46.90;;;;;;5053181;28;20442;-85
2022/03/01 00:16:09;;;;;;;3.60;3.30;;;25.70;46.90;;;;;;5053168;28;20442;-86
2022/03/01 00:18:35;;;;;;;3.80;3.50;;;25.70;47.00;;;;;;5053441;28;20433;-85
2022/03/01 00:21:02;;;;;;;4.00;3.60;;;25.60;46.90;;;;;;5053193;28;20437;-85
2022/03/01 00:23:29;;;;;;;3.47;3.17;;;25.60;46.90;;;;;;5053097;28;20788;-85
2022/03/01 00:25:56;;;;;;;3.07;2.87;;;25.70;46.90;;;;;;5052979;28;20442;-85
2022/03/01 00:28:22;;;;;;;3.50;3.20;;;25.70;46.90;;;;;;5052922;28;20802;-86
2022/03/01 00:30:49;;;;;;;3.40;3.10;;;25.60;46.90;;;;;;5052853;28;20504;-85
2022/03/01 00:33:17;;;;;;;3.77;3.47;;;25.60;46.90;;;;;;5052967;28;20444;-86
2022/03/01 00:35:44;;;;;;;3.30;3.00;;;25.60;46.90;;;;;;5052984;28;20438;-86
2022/03/01 00:38:11;;;;;;;3.63;3.33;;;25.60;46.80;;;;;;5056411;28;20444;-85
2022/03/01 00:40:38;;;;;;;3.07;2.87;;;25.60;46.90;;;;;;5056675;28;20485;-86
2022/03/01 00:43:04;;;;;;;3.43;3.13;;;25.60;46.90;;;;;;5056860;28;20436;-86
2022/03/01 00:45:31;;;;;;;2.83;2.63;;;25.60;46.90;;;;;;5056658;28;20448;-86
2022/03/01 00:47:58;;;;;;;3.27;3.07;;;25.60;46.90;;;;;;5056605;28;20951;-85
2022/03/01 00:50:26;;;;;;;3.50;3.20;;;25.50;46.80;;;;;;5056570;28;20442;-85
2022/03/01 00:52:53;;;;;;;3.47;3.20;;;25.60;46.90;;;;;;5056256;28;20483;-85
2022/03/01 00:55:20;;;;;;;3.70;3.40;;;25.60;46.90;;;;;;5056265;28;20480;-86
2022/03/01 00:57:46;;;;;;;3.57;3.30;;;25.60;46.90;;;;;;5056263;28;20921;-85
2022/03/01 01:00:14;;;;;;;4.70;3.60;;;25.50;46.80;;;;;;5056628;28;20988;-85
2022/03/01 01:02:41;;;;;;;2.97;2.77;;;25.60;46.80;;;;;;5056348;28;20953;-88
2022/03/01 01:05:08;;;;;;;4.23;3.90;;;25.60;46.90;;;;;;5056499;28;20464;-89
2022/03/01 01:07:36;;;;;;;3.57;3.27;;;25.50;46.80;;;;;;5056303;28;20437;-85
2022/03/01 01:10:04;;;;;;;3.30;2.73;;;25.50;46.80;;;;;;5056237;28;20467;-86
2022/03/01 01:12:31;;;;;;;3.70;3.33;;;25.50;46.80;;;;;;5056047;28;20443;-85
2022/03/01 01:14:58;;;;;;;2.93;2.73;;;25.50;46.80;;;;;;5056358;28;20438;-85
2022/03/01 01:17:24;;;;;;;2.90;2.70;;;25.50;46.80;;;;;;5056060;28;20434;-87
2022/03/01 01:19:51;;;;;;;3.40;3.10;;;25.50;46.80;;;;;;5056056;28;20485;-85
2022/03/01 01:25:05;;;;;;;3.20;2.93;;;25.50;46.80;;;;;;5056893;28;20480;-85
2022/03/01 01:27:32;;;;;;;4.13;3.33;;;25.50;46.90;;;;;;5055902;28;20442;-86
2022/03/01 01:29:58;;;;;;;3.20;2.90;;;25.50;46.90;;;;;;5056055;28;20791;-85
2022/03/01 01:32:25;;;;;;;3.13;2.83;;;25.50;46.90;;;;;;5055851;28;20446;-86
2022/03/01 01:34:52;;;;;;;3.00;2.80;;;25.50;46.80;;;;;;5055765;28;20457;-86
2022/03/01 01:37:19;;;;;;;3.60;3.30;;;25.50;46.90;;;;;;5055772;28;20437;-85
2022/03/01 01:39:47;;;;;;;2.57;2.37;;;25.50;46.80;;;;;;5055642;28;20484;-88
2022/03/01 01:42:15;;;;;;;2.93;2.73;;;25.50;46.80;;;;;;5055673;28;20539;-85
2022/03/01 01:44:44;;;;;;;2.70;2.50;;;25.50;46.80;;;;;;5055490;28;20777;-85
2022/03/01 01:47:11;;;;;;;3.10;2.90;;;25.40;46.80;;;;;;5055508;28;20442;-86
2022/03/01 01:49:37;;;;;;;2.67;2.47;;;25.50;46.90;;;;;;5055153;28;20803;-86
2022/03/01 01:52:05;;;;;;;2.83;2.60;;;25.40;46.70;;;;;;5055367;28;20465;-86
2022/03/01 01:54:32;;;;;;;2.50;2.30;;;25.40;46.80;;;;;;5055238;28;20442;-85
2022/03/01 01:56:59;;;;;;;2.90;2.70;;;25.40;46.80;;;;;;5055431;28;20446;-86
2022/03/01 01:59:27;;;;;;;3.10;2.87;;;25.40;46.80;;;;;;5055346;28;20477;-86
2022/03/01 02:01:54;;;;;;;3.30;3.10;;;25.40;46.70;;;;;;5055157;28;20442;-85
2022/03/01 02:04:20;;;;;;;3.53;2.90;;;25.40;46.70;;;;;;5055338;28;20448;-85
2022/03/01 02:06:51;;;;;;;2.80;2.57;;;25.40;46.70;;;;;;5055230;28;20441;-86
2022/03/01 02:09:24;;;;;;;3.20;3.00;;;25.40;46.70;;;;;;5055439;28;20842;-85
2022/03/01 02:11:50;;;;;;;3.10;2.90;;;25.40;46.70;;;;;;5055040;28;20507;-85
2022/03/01 02:14:17;;;;;;;2.70;2.50;;;25.40;46.70;;;;;;5055177;28;20444;-85
2022/03/01 02:16:45;;;;;;;3.20;3.00;;;25.40;46.70;;;;;;5055091;28;20442;-85
2022/03/01 02:19:13;;;;;;;2.70;2.50;;;25.50;46.80;;;;;;5055021;28;20442;-85
2022/03/01 02:21:47;;;;;;;3.57;3.27;;;25.40;46.70;;;;;;5054785;28;20449;-85
2022/03/01 02:24:15;;;;;;;2.73;2.50;;;25.40;46.60;;;;;;5054757;28;20449;-87
2022/03/01 02:26:42;;;;;;;2.83;2.63;;;25.40;46.70;;;;;;5054765;28;20445;-86
2022/03/01 02:29:09;;;;;;;2.90;2.70;;;25.40;46.60;;;;;;5054700;28;20449;-86
2022/03/01 02:31:36;;;;;;;2.90;2.70;;;25.40;46.60;;;;;;5054618;28;20442;-85
2022/03/01 02:34:03;;;;;;;2.93;2.73;;;25.50;46.70;;;;;;5054643;28;20449;-86
2022/03/01 02:36:30;;;;;;;2.90;2.70;;;25.40;46.60;;;;;;5054598;28;20881;-86
2022/03/01 02:38:58;;;;;;;3.30;3.00;;;25.40;46.60;;;;;;5054388;28;20440;-85
2022/03/01 02:41:26;;;;;;;2.90;2.70;;;25.40;46.60;;;;;;5054342;28;20839;-85
2022/03/01 02:43:53;;;;;;;2.77;2.47;;;25.40;46.60;;;;;;5054413;28;20485;-85
2022/03/01 02:46:20;;;;;;;2.50;2.30;;;25.40;46.60;;;;;;5054384;28;20513;-86
2022/03/01 02:48:47;;;;;;;2.53;2.33;;;25.40;46.60;;;;;;5054173;28;20445;-85
2022/03/01 02:51:14;;;;;;;3.50;3.20;;;25.40;46.60;;;;;;5054321;28;20438;-85
2022/03/01 02:53:40;;;;;;;2.90;2.70;;;25.40;46.70;;;;;;5054288;28;20468;-85
2022/03/01 02:56:08;;;;;;;3.43;3.13;;;25.30;46.60;;;;;;5054099;28;20470;-85
2022/03/01 02:58:35;;;;;;;2.70;2.50;;;25.30;46.60;;;;;;5054122;28;20450;-86
2022/03/01 03:01:02;;;;;;;2.60;2.40;;;25.30;46.60;;;;;;5053343;28;21053;-85
2022/03/01 03:03:29;;;;;;;2.60;2.40;;;25.40;46.60;;;;;;5054255;28;20442;-88
2022/03/01 03:05:55;;;;;;;3.07;2.77;;;25.40;46.60;;;;;;5054005;28;20445;-85
2022/03/01 03:08:22;;;;;;;2.70;2.50;;;25.40;46.60;;;;;;5053709;28;20441;-85
2022/03/01 03:10:49;;;;;;;2.73;2.53;;;25.30;46.60;;;;;;5053904;28;20442;-85
2022/03/01 03:13:17;;;;;;;2.90;2.70;;;25.30;46.60;;;;;;5054158;28;20800;-85
2022/03/01 03:15:44;;;;;;;2.40;2.20;;;25.30;46.60;;;;;;5053774;28;20928;-85
2022/03/01 03:18:11;;;;;;;2.80;2.60;;;25.30;46.60;;;;;;5053939;28;20449;-85
2022/03/01 03:20:38;;;;;;;2.50;2.30;;;25.30;46.60;;;;;;5053816;28;20517;-85
2022/03/01 03:23:05;;;;;;;2.47;2.27;;;25.30;46.60;;;;;;5053499;28;21020;-86
2022/03/01 03:25:32;;;;;;;2.90;2.70;;;25.30;46.60;;;;;;5053947;28;20434;-85
2022/03/01 03:27:59;;;;;;;2.37;2.17;;;25.30;46.60;;;;;;5053472;28;20437;-85
2022/03/01 03:30:27;;;;;;;2.33;2.23;;;25.30;46.50;;;;;;5053622;28;20437;-85
2022/03/01 03:32:54;;;;;;;2.70;2.50;;;25.20;46.50;;;;;;5053950;28;20773;-85
2022/03/01 03:35:21;;;;;;;3.13;2.93;;;25.30;46.60;;;;;;5053670;28;20433;-85
2022/03/01 03:37:48;;;;;;;3.07;2.77;;;25.30;46.60;;;;;;5053449;28;20912;-85
2022/03/01 03:40:15;;;;;;;2.80;2.60;;;25.30;46.60;;;;;;5053392;28;20489;-86
2022/03/01 03:42:44;;;;;;;2.60;2.40;;;25.30;46.60;;;;;;5053366;28;20952;-85
2022/03/01 03:45:12;;;;;;;2.43;2.23;;;25.20;46.60;;;;;;5053516;28;20453;-85
2022/03/01 03:47:41;;;;;;;3.03;2.80;;;25.30;46.60;;;;;;5053391;28;20437;-85
2022/03/01 03:50:09;;;;;;;2.50;2.30;;;25.20;46.50;;;;;;5053381;28;20439;-86
2022/03/01 03:52:36;;;;;;;2.80;2.60;;;25.20;46.50;;;;;;5053177;28;20461;-85
2022/03/01 03:55:05;;;;;;;2.63;2.43;;;25.20;46.60;;;;;;5053046;28;20991;-85
2022/03/01 03:57:32;;;;;;;2.30;2.17;;;25.20;46.60;;;;;;5053342;28;20835;-85
2022/03/01 03:59:59;;;;;;;2.60;2.40;;;25.20;46.60;;;;;;5053203;28;20528;-85
2022/03/01 04:02:26;;;;;;;2.83;2.60;;;25.20;46.60;;;;;;5053453;28;20449;-85
2022/03/01 04:04:54;;;;;;;2.33;2.13;;;25.20;46.50;;;;;;5053405;28;20437;-85
2022/03/01 04:07:21;;;;;;;2.53;2.33;;;25.20;46.50;;;;;;5053389;28;20444;-85
2022/03/01 04:09:48;;;;;;;2.50;2.30;;;25.20;46.50;;;;;;5053138;28;20446;-85
2022/03/01 04:12:15;;;;;;;2.73;2.53;;;25.20;46.50;;;;;;5055608;28;20503;-85
2022/03/01 04:14:42;;;;;;;2.20;2.00;;;25.20;46.50;;;;;;5057379;28;20515;-85
2022/03/01 04:17:09;;;;;;;2.50;2.30;;;25.20;46.50;;;;;;5057245;28;20448;-85
2022/03/01 04:19:36;;;;;;;2.70;2.50;;;25.20;46.50;;;;;;5057282;28;20449;-85
2022/03/01 04:22:05;;;;;;;2.70;2.53;;;25.20;46.50;;;;;;5057017;28;20499;-85
2022/03/01 04:24:32;;;;;;;2.80;2.23;;;25.20;46.50;;;;;;5057158;28;20853;-86
2022/03/01 04:26:58;;;;;;;2.00;1.90;;;25.20;46.60;;;;;;5057121;28;20440;-85
2022/03/01 04:29:25;;;;;;;2.77;2.57;;;25.20;46.50;;;;;;5057034;28;20433;-85
2022/03/01 04:31:52;;;;;;;2.37;2.17;;;25.20;46.50;;;;;;5057159;28;20433;-85
2022/03/01 04:34:19;;;;;;;2.50;2.37;;;25.10;46.50;;;;;;5056965;28;20438;-85
2022/03/01 04:36:46;;;;;;;2.27;2.07;;;25.20;46.50;;;;;;5056904;28;20452;-85
2022/03/01 04:39:14;;;;;;;2.83;2.63;;;25.20;46.60;;;;;;5056907;28;20448;-85
2022/03/01 04:41:41;;;;;;;2.23;2.03;;;25.20;46.60;;;;;;5056755;28;20864;-85
2022/03/01 04:44:07;;;;;;;2.70;2.50;;;25.30;46.60;;;;;;5056818;28;20527;-85
2022/03/01 04:46:34;;;;;;;2.70;2.50;;;25.20;46.60;;;;;;5056588;28;20452;-85
2022/03/01 04:49:02;;;;;;;2.13;2.03;;;25.20;46.60;;;;;;5043012;28;20437;-85
2022/03/01 04:51:28;;;;;;;2.73;2.53;;;25.20;46.50;;;;;;5049900;28;20445;-85
2022/03/01 04:53:56;;;;;;;2.40;2.20;;;25.20;46.50;;;;;;5041561;28;20439;-88
2022/03/01 04:56:24;;;;;;;2.30;2.10;;;25.20;46.40;;;;;;5035957;28;20806;-88
2022/03/01 04:58:51;;;;;;;2.30;2.20;;;25.30;46.30;;;;;;5036650;28;20434;-86
2022/03/01 05:01:18;;;;;;;2.50;2.13;;;25.30;46.30;;;;;;5036306;28;21019;-85
2022/03/01 05:03:45;;;;;;;2.63;2.43;;;25.30;46.30;;;;;;5036335;28;20443;-85
2022/03/01 05:06:12;;;;;;;2.20;2.07;;;25.40;46.20;;;;;;5036340;28;20446;-88
2022/03/01 05:08:38;;;;;;;2.03;1.93;;;25.40;46.20;;;;;;5036247;28;20446;-86
2022/03/01 05:11:05;;;;;;;2.27;2.17;;;25.40;46.20;;;;;;5036066;28;20938;-85
2022/03/01 05:13:33;;;;;;;2.20;2.10;;;25.40;46.20;;;;;;5036390;28;20439;-85
2022/03/01 05:16:00;;;;;;;2.67;2.43;;;25.50;46.30;;;;;;5036523;28;20456;-85
2022/03/01 05:18:27;;;;;;;2.67;2.47;;;25.40;46.30;;;;;;5035913;28;20823;-85
2022/03/01 05:20:54;;;;;;;2.30;2.20;;;25.40;46.50;;;;;;5036007;28;21021;-85
2022/03/01 05:23:21;;;;;;;2.80;2.50;;;25.50;46.30;;;;;;5034747;28;20466;-85
2022/03/01 05:25:48;;;;;;;2.63;2.20;;;25.40;46.60;;;;;;5036117;28;20435;-85
2022/03/01 05:28:15;;;;;;;2.60;2.40;;;25.40;46.60;;;;;;5035906;28;20453;-85
2022/03/01 05:30:43;;;;;;;2.53;2.33;;;25.50;46.70;;;;;;5035727;28;20450;-85
2022/03/01 05:33:10;;;;;;;2.43;2.27;;;25.50;46.70;;;;;;5035966;28;20926;-85
2022/03/01 05:35:36;;;;;;;2.53;2.37;;;25.50;46.70;;;;;;5035788;28;20454;-86
2022/03/01 05:38:03;;;;;;;2.37;2.17;;;25.50;46.60;;;;;;5035824;28;20454;-87
2022/03/01 05:40:32;;;;;;;2.40;2.30;;;25.50;46.60;;;;;;5035832;28;20465;-85
2022/03/01 05:42:59;;;;;;;2.50;2.30;;;25.50;46.60;;;;;;5035638;28;20445;-86
2022/03/01 05:45:27;;;;;;;2.57;2.33;;;25.50;46.60;;;;;;5035568;28;20512;-85
2022/03/01 05:47:56;;;;;;;2.50;2.30;;;25.60;46.60;;;;;;5035583;28;20469;-85
2022/03/01 05:50:22;;;;;;;2.70;2.50;;;25.60;46.60;;;;;;5035068;28;20446;-85
2022/03/01 05:52:50;;;;;;;3.27;2.20;;;25.60;46.50;;;;;;5034402;28;20454;-85
2022/03/01 05:55:17;;;;;;;2.90;2.60;;;25.60;46.60;;;;;;5034773;28;20471;-85
2022/03/01 05:57:44;;;;;;;2.77;2.57;;;25.60;46.60;;;;;;5034720;28;20447;-85
2022/03/01 06:00:13;;;;;;;4.00;2.90;;;25.60;46.60;;;;;;5034782;28;20942;-85
2022/03/01 06:02:40;;;;;;;4.90;2.30;;;25.60;46.50;;;;;;5034376;28;20493;-85
2022/03/01 06:05:09;;;;;;;2.60;2.40;;;25.60;46.50;;;;;;5034936;28;20439;-86
2022/03/01 06:07:36;;;;;;;2.50;2.30;;;25.60;46.60;;;;;;5032706;28;20446;-85
2022/03/01 06:10:03;;;;;;;2.60;2.40;;;25.60;47.20;;;;;;5034613;28;20438;-85
2022/03/01 06:12:29;;;;;;;2.67;2.47;;;25.60;47.20;;;;;;5034578;28;20442;-86
2022/03/01 06:14:56;;;;;;;2.33;2.13;;;25.60;46.60;;;;;;5034528;28;20435;-87
2022/03/01 06:17:23;;;;;;;2.27;2.10;;;25.70;46.60;;;;;;5035245;28;20443;-85
2022/03/01 06:19:50;;;;;;;2.63;2.43;;;25.60;46.60;;;;;;5034872;28;20430;-85
2022/03/01 06:22:20;;;;;;;2.67;2.47;;;25.60;46.60;;;;;;5034909;28;20497;-85
2022/03/01 06:24:47;;;;;;;2.77;2.57;;;25.70;46.50;;;;;;5034746;28;20470;-85
2022/03/01 06:27:14;;;;;;;2.70;2.50;;;25.70;46.70;;;;;;5034731;28;20454;-85
2022/03/01 06:29:41;;;;;;;2.80;2.60;;;25.70;46.70;;;;;;5034933;28;20435;-85
2022/03/01 06:32:09;;;;;;;2.60;2.40;;;25.70;46.70;;;;;;5034795;28;20457;-85
2022/03/01 06:34:35;;;;;;;2.67;2.47;;;25.70;46.60;;;;;;5033905;28;20439;-85
2022/03/01 06:37:02;;;;;;;3.03;2.50;;;25.70;46.70;;;;;;5034247;28;20465;-86
2022/03/01 06:39:32;;;;;;;2.77;2.57;;;25.70;46.80;;;;;;5034774;28;20434;-88
2022/03/01 06:41:59;;;;;;;3.73;2.80;;;25.80;47.40;;;;;;5017419;28;20837;-83
2022/03/01 06:44:27;;;;;;;6.20;4.87;;;25.70;46.90;;;;;;5034811;28;20447;-86
2022/03/01 06:46:53;;;;;;;7.83;4.00;;;25.60;43.00;;;;;;5034109;28;20434;-86
2022/03/01 06:49:21;;;;;;;4.20;2.77;;;25.50;44.10;;;;;;5034456;28;20798;-85
2022/03/01 06:51:47;;;;;;;3.43;3.20;;;25.50;45.80;;;;;;5034102;28;20802;-86
2022/03/01 06:54:14;;;;;;;3.83;3.53;;;25.50;46.20;;;;;;5034127;28;20454;-86
2022/03/01 06:56:43;;;;;;;3.07;2.87;;;25.50;46.20;;;;;;5046072;28;20458;-96
2022/03/01 06:59:10;;;;;;;2.80;2.60;;;25.40;46.10;;;;;;5057164;28;20433;-85
2022/03/01 07:01:37;;;;;;;3.20;2.97;;;25.50;46.20;;;;;;5073920;28;20496;-84
2022/03/01 07:04:04;;;;;;;3.17;2.87;;;25.60;46.20;;;;;;5055245;28;20442;-85
2022/03/01 07:06:30;;;;;;;3.00;2.70;;;25.70;46.30;;;;;;5054130;28;20460;-84
2022/03/01 07:08:57;;;;;;;3.57;3.27;;;25.70;46.20;;;;;;5054122;28;20442;-84
2022/03/01 07:11:24;;;;;;;3.30;3.00;;;25.70;46.20;;;;;;5045880;28;20446;-90
2022/03/01 07:13:52;;;;;;;2.80;2.60;;;25.70;46.20;;;;;;5045230;28;20961;-88
2022/03/01 07:16:19;;;;;;;6.53;3.03;;;25.70;46.20;;;;;;5052992;28;20442;-88
2022/03/01 07:18:47;;;;;;;2.60;2.40;;;25.70;46.30;;;;;;5054118;28;20529;-90
2022/03/01 07:21:14;;;;;;;3.00;2.60;;;25.70;46.20;;;;;;5053750;28;20500;-85
2022/03/01 07:23:41;;;;;;;3.10;2.80;;;25.70;46.30;;;;;;5053682;28;20462;-85
2022/03/01 07:26:08;;;;;;;2.53;2.33;;;25.70;46.30;;;;;;5053256;28;20445;-85
2022/03/01 07:28:35;;;;;;;2.53;2.33;;;25.70;46.20;;;;;;5053422;28;20446;-84
2022/03/01 07:31:03;;;;;;;3.53;2.87;;;25.70;46.20;;;;;;5053792;28;20446;-86
2022/03/01 07:33:30;;;;;;;2.70;2.50;;;25.80;46.20;;;;;;5053387;28;20445;-84
2022/03/01 07:35:56;;;;;;;2.80;2.60;;;25.80;46.20;;;;;;5053191;28;20462;-85
2022/03/01 07:38:23;;;;;;;3.27;2.97;;;25.80;46.20;;;;;;5053341;28;20449;-84
2022/03/01 07:40:50;;;;;;;2.93;2.73;;;25.80;46.10;;;;;;5052441;28;20449;-84
2022/03/01 07:43:17;;;;;;;2.73;2.53;;;25.80;46.10;;;;;;5052565;28;20438;-85
2022/03/01 07:45:43;;;;;;;2.70;2.50;;;25.80;46.00;;;;;;5052064;28;21086;-85
2022/03/01 07:48:12;;;;;;;2.57;2.33;;;25.90;46.10;;;;;;5052313;28;20442;-85
2022/03/01 07:50:39;;;;;;;2.70;2.50;;;26.00;46.10;;;;;;5052310;28;20457;-85
2022/03/01 07:53:06;;;;;;;3.00;2.70;;;25.90;45.90;;;;;;5052065;28;20473;-84
2022/03/01 07:55:34;;;;;;;2.93;2.73;;;26.00;45.90;;;;;;5052863;28;20472;-85
2022/03/01 07:58:01;;;;;;;2.80;2.60;;;25.90;45.90;;;;;;5053109;28;20441;-86
2022/03/01 08:00:28;;;;;;;4.40;3.00;;;25.90;45.80;;;;;;5053127;28;20787;-86
2022/03/01 08:02:55;;;;;;;4.70;2.57;;;25.90;45.80;;;;;;5052925;28;20481;-84
2022/03/01 08:05:23;;;;;;;3.47;3.07;;;26.00;45.80;;;;;;5052003;28;20441;-87
2022/03/01 08:07:50;;;;;;;2.60;2.40;;;26.00;45.80;;;;;;5052633;28;20450;-84
2022/03/01 08:10:17;;;;;;;3.17;2.40;;;26.00;45.60;;;;;;5053195;28;20803;-84
2022/03/01 08:12:44;;;;;;;3.07;2.77;;;26.00;45.60;;;;;;5052406;28;20454;-84
2022/03/01 08:15:11;;;;;;;3.30;3.00;;;26.00;45.50;;;;;;5053124;28;20473;-84
2022/03/01 08:17:45;;;;;;;3.00;2.80;;;26.20;45.30;;;;;;5052973;28;20464;-84
2022/03/01 08:20:12;;;;;;;2.87;2.67;;;26.20;45.30;;;;;;5052390;28;20960;-83
2022/03/01 08:22:40;;;;;;;2.90;2.67;;;26.30;45.20;;;;;;5051989;28;20489;-83
2022/03/01 08:25:08;;;;;;;2.67;2.47;;;26.30;45.20;;;;;;5052405;28;20450;-84
2022/03/01 08:27:35;;;;;;;2.67;2.47;;;26.40;45.30;;;;;;5052182;28;20451;-84
2022/03/01 08:30:02;;;;;;;2.80;2.60;;;26.40;45.30;;;;;;5052521;28;20434;-83
2022/03/01 08:32:28;;;;;;;2.50;2.30;;;26.40;45.30;;;;;;5052727;28;20446;-83
2022/03/01 08:34:55;;;;;;;2.70;2.50;;;26.40;45.30;;;;;;5053186;28;20434;-83
2022/03/01 08:37:22;;;;;;;2.93;2.73;;;26.50;45.30;;;;;;5052985;28;20430;-83
2022/03/01 08:39:50;;;;;;;2.60;2.40;;;26.50;45.30;;;;;;5053111;28;20441;-83
2022/03/01 08:42:18;;;;;;;2.73;2.50;;;26.70;45.30;;;;;;5052807;28;20489;-83
2022/03/01 08:44:45;;;;;;;2.53;2.33;;;26.60;45.20;;;;;;5052878;28;20516;-83
2022/03/01 08:47:12;;;;;;;2.60;2.40;;;26.70;45.10;;;;;;5051589;28;20464;-82
2022/03/01 08:49:38;;;;;;;2.33;2.23;;;26.70;45.10;;;;;;5052911;28;20445;-83
2022/03/01 08:52:06;;;;;;;2.90;2.50;;;26.80;45.00;;;;;;5052227;28;20480;-83
2022/03/01 08:54:32;;;;;;;5.83;3.10;;;26.90;45.00;;;;;;5051579;28;20532;-83
2022/03/01 08:57:01;;;;;;;2.90;2.67;;;27.10;45.50;;;;;;5052532;28;20442;-83
2022/03/01 08:59:27;;;;;;;2.83;2.63;;;27.20;44.70;;;;;;5055020;28;20455;-83
2022/03/01 09:01:54;;;;;;;2.90;2.70;;;27.30;44.60;;;;;;5056404;28;20477;-83
2022/03/01 09:04:21;;;;;;;2.97;2.77;;;27.40;44.60;;;;;;5056336;28;20442;-83
2022/03/01 09:06:47;;;;;;;2.60;2.40;;;27.60;44.50;;;;;;5056348;28;20442;-83
2022/03/01 09:09:14;;;;;;;4.60;2.70;;;27.80;44.40;;;;;;5056180;28;20447;-83
2022/03/01 09:11:41;;;;;;;3.00;2.80;;;28.00;44.20;;;;;;5056102;28;20452;-83
2022/03/01 09:14:09;;;;;;;3.30;3.00;;;28.10;44.00;;;;;;5056316;28;20449;-83
2022/03/01 09:16:38;;;;;;;2.83;2.47;;;28.30;43.90;;;;;;5056478;28;20435;-83
2022/03/01 09:19:05;;;;;;;2.63;2.43;;;28.40;43.80;;;;;;5056237;28;20495;-83
2022/03/01 09:21:32;;;;;;;3.03;2.73;;;28.40;43.70;;;;;;5055986;28;20473;-84
2022/03/01 09:23:58;;;;;;;2.17;2.03;;;28.40;43.70;;;;;;5055964;28;20464;-83
2022/03/01 09:26:25;;;;;;;2.90;2.50;;;28.40;43.70;;;;;;5055890;28;20442;-83
2022/03/01 09:28:52;;;;;;;2.60;2.40;;;28.50;43.70;;;;;;5055873;28;20427;-83
2022/03/01 09:31:20;;;;;;;2.83;2.63;;;28.70;43.60;;;;;;5055630;28;20785;-84
2022/03/01 09:33:47;;;;;;;3.40;2.60;;;28.80;43.40;;;;;;5055953;28;20437;-84
2022/03/01 09:36:15;;;;;;;2.10;1.90;;;28.90;44.00;;;;;;5055688;28;20434;-83
2022/03/01 09:38:43;;;;;;;3.10;2.80;;;28.80;43.40;;;;;;5055861;28;20790;-87
2022/03/01 09:41:11;;;;;;;2.80;2.20;;;28.70;43.50;;;;;;5055889;28;20445;-84
2022/03/01 09:43:39;;;;;;;2.50;2.30;;;28.60;43.60;;;;;;5055656;28;21036;-83
2022/03/01 09:46:07;;;;;;;4.97;2.47;;;28.60;44.40;;;;;;5055477;28;20806;-83
2022/03/01 09:48:35;;;;;;;3.10;2.90;;;28.40;43.90;;;;;;5055373;28;20446;-84
2022/03/01 09:51:04;;;;;;;2.67;2.47;;;28.20;43.90;;;;;;5055099;28;20434;-83
2022/03/01 09:53:31;;;;;;;2.60;2.40;;;28.10;44.00;;;;;;5055326;28;20449;-83
2022/03/01 09:55:59;;;;;;;2.93;2.73;;;28.00;44.10;;;;;;5055165;28;20492;-85
2022/03/01 09:58:26;;;;;;;2.50;2.30;;;28.00;44.20;;;;;;5055073;28;20519;-83
2022/03/01 10:00:53;;;;;;;2.33;2.17;;;28.00;44.30;;;;;;5055036;28;20791;-83
2022/03/01 10:03:20;;;;;;;2.83;2.63;;;27.90;44.30;;;;;;5054849;28;20564;-84
2022/03/01 10:05:49;;;;;;;3.40;2.50;;;27.80;44.30;;;;;;5055143;28;20446;-83
2022/03/01 10:08:18;;;;;;;2.70;2.50;;;27.80;44.50;;;;;;5055179;28;20434;-83
2022/03/01 10:10:47;;;;;;;2.50;2.30;;;27.70;44.50;;;;;;5054719;28;20802;-83
2022/03/01 10:13:15;;;;;;;3.30;2.70;;;27.70;44.50;;;;;;5054849;28;20468;-84
2022/03/01 10:15:42;;;;;;;1.80;1.70;;;27.80;44.50;;;;;;5054952;28;20434;-85
2022/03/01 10:18:14;;;;;;;2.73;2.53;;;27.90;44.50;;;;;;5055085;28;20801;-83
2022/03/01 10:20:44;;;;;;;3.10;2.80;;;27.90;44.40;;;;;;5055102;28;20445;-84
2022/03/01 10:23:12;;;;;;;3.13;2.93;;;27.90;44.40;;;;;;5055158;28;20564;-84
2022/03/01 10:25:42;;;;;;;2.63;2.43;;;27.80;44.50;;;;;;5054725;28;20442;-83
2022/03/01 10:28:09;;;;;;;2.90;2.70;;;27.70;44.50;;;;;;5054729;28;20479;-83
2022/03/01 10:30:38;;;;;;;2.70;2.50;;;27.60;44.60;;;;;;5054800;28;20446;-84
2022/03/01 10:33:06;;;;;;;2.80;2.60;;;27.60;44.60;;;;;;5054641;28;20442;-83
2022/03/01 10:35:34;;;;;;;3.00;2.80;;;27.60;44.70;;;;;;5054535;28;20441;-87
2022/03/01 10:38:02;;;;;;;2.67;2.47;;;27.50;44.70;;;;;;5054410;28;20438;-83
2022/03/01 10:40:30;;;;;;;2.20;2.10;;;27.40;44.80;;;;;;5054563;28;20437;-84
2022/03/01 10:43:07;;;;;;;2.67;2.47;;;27.40;45.00;;;;;;5054472;28;20485;-85
2022/03/01 10:45:39;;;;;;;3.13;2.93;;;27.30;45.00;;;;;;5054274;28;20909;-83
2022/03/01 10:48:08;;;;;;;2.63;2.43;;;27.40;45.10;;;;;;5054300;28;20453;-83
2022/03/01 10:50:35;;;;;;;2.70;2.50;;;27.30;45.10;;;;;;5054188;28;20442;-84
2022/03/01 10:53:02;;;;;;;2.70;2.50;;;27.30;45.10;;;;;;5053876;28;20465;-87
2022/03/01 10:55:32;;;;;;;2.53;2.30;;;27.20;45.10;;;;;;5053498;28;20489;-83
2022/03/01 10:58:06;;;;;;;3.43;3.13;;;27.20;45.00;;;;;;5053483;28;20811;-84
2022/03/01 11:00:34;;;;;;;2.90;2.70;;;27.10;45.20;;;;;;5054026;28;21003;-83
2022/03/01 11:03:02;;;;;;;2.83;2.63;;;27.10;45.40;;;;;;5053931;28;20488;-83
2022/03/01 11:05:31;;;;;;;2.87;2.67;;;27.10;45.40;;;;;;5054021;28;20441;-83
2022/03/01 11:08:01;;;;;;;2.70;2.50;;;27.10;45.50;;;;;;5054072;28;20442;-83
2022/03/01 11:10:32;;;;;;;2.50;2.40;;;27.10;45.50;;;;;;5053179;28;20445;-83
2022/03/01 11:13:01;;;;;;;2.30;2.10;;;27.00;45.50;;;;;;5052731;28;20446;-83
2022/03/01 11:15:57;;;;;;;2.13;2.03;;;27.00;45.50;;;;;;5052671;28;20484;-84
2022/03/01 11:18:36;;;;;;;3.33;3.10;;;27.00;45.60;;;;;;5035478;28;20848;-83
2022/03/01 11:21:04;;;;;;;2.70;2.50;;;27.00;45.70;;;;;;5051289;28;20468;-83
2022/03/01 11:23:32;;;;;;;2.63;2.43;;;26.90;45.70;;;;;;5052393;28;20492;-83
2022/03/01 11:26:09;;;;;;;2.17;2.07;;;26.90;45.70;;;;;;5053293;28;20442;-83
2022/03/01 11:28:40;;;;;;;2.47;2.27;;;26.90;45.70;;;;;;5053860;28;20444;-84
2022/03/01 11:31:19;;;;;;;2.50;2.30;;;26.90;45.80;;;;;;5053544;28;20457;-83
2022/03/01 11:33:58;;;;;;;2.70;2.50;;;26.90;45.80;;;;;;5053834;28;20444;-83
2022/03/01 11:36:28;;;;;;;2.50;2.30;;;26.80;45.80;;;;;;5053589;28;20442;-83
2022/03/01 11:38:55;;;;;;;2.50;2.40;;;26.80;45.80;;;;;;5053647;28;20441;-83
2022/03/01 11:41:23;;;;;;;2.23;2.03;;;26.80;45.80;;;;;;5053553;28;20437;-83
2022/03/01 11:43:55;;;;;;;2.40;2.20;;;26.70;45.80;;;;;;5053443;28;20493;-83
2022/03/01 11:46:23;;;;;;;2.60;2.40;;;26.70;45.90;;;;;;5053563;28;20449;-83
2022/03/01 11:48:53;;;;;;;2.43;2.23;;;26.70;45.90;;;;;;5053619;28;20519;-84
2022/03/01 11:51:31;;;;;;;2.60;2.40;;;26.70;45.90;;;;;;5053091;28;20465;-83
2022/03/01 11:54:01;;;;;;;3.10;2.80;;;26.70;46.00;;;;;;5053300;28;20492;-83
2022/03/01 11:56:29;;;;;;;2.10;2.00;;;26.80;46.10;;;;;;5053038;28;20473;-83
2022/03/01 11:59:04;;;;;;;2.67;2.47;;;26.70;46.00;;;;;;5053411;28;20457;-83
2022/03/01 12:01:33;;;;;;;2.47;2.27;;;26.70;46.10;;;;;;5053398;28;20445;-85
2022/03/01 12:04:01;;;;;;;2.40;2.20;;;26.70;46.00;;;;;;5053172;28;20976;-83
2022/03/01 12:06:30;;;;;;;2.60;2.40;;;26.70;46.10;;;;;;5053199;28;20816;-83
2022/03/01 12:08:58;;;;;;;2.90;2.43;;;26.70;46.10;;;;;;5053066;28;20449;-83
2022/03/01 12:11:38;;;;;;;2.47;2.27;;;26.70;46.10;;;;;;5053208;28;20446;-83
2022/03/01 12:14:08;;;;;;;2.40;2.20;;;26.70;46.00;;;;;;5053269;28;20441;-83
2022/03/01 12:16:36;;;;;;;2.27;2.07;;;26.70;46.10;;;;;;5053154;28;20803;-84
2022/03/01 12:19:08;;;;;;;2.63;2.43;;;26.60;46.00;;;;;;5053147;28;20934;-83
2022/03/01 12:21:35;;;;;;;2.10;1.90;;;26.70;46.10;;;;;;5053037;28;20465;-83
2022/03/01 12:24:02;;;;;;;1.93;1.83;;;26.60;46.00;;;;;;5053188;28;20481;-83
2022/03/01 12:26:29;;;;;;;2.43;2.33;;;26.70;46.10;;;;;;5052945;28;20438;-83
2022/03/01 12:29:00;;;;;;;2.23;2.03;;;26.60;46.10;;;;;;5053069;28;20442;-83
2022/03/01 12:31:29;;;;;;;2.63;2.43;;;26.60;46.10;;;;;;5052818;28;20438;-83
2022/03/01 12:33:59;;;;;;;2.20;2.07;;;26.60;46.10;;;;;;5056717;28;20440;-83
2022/03/01 12:36:32;;;;;;;2.50;2.30;;;26.70;46.10;;;;;;5057271;28;20521;-83
2022/03/01 12:39:02;;;;;;;1.87;1.77;;;26.70;46.10;;;;;;5056818;28;20433;-84
2022/03/01 12:41:29;;;;;;;2.60;2.40;;;26.70;46.10;;;;;;5056941;28;20434;-83
2022/03/01 12:43:59;;;;;;;2.03;1.93;;;26.70;46.10;;;;;;5056814;28;20485;-83
2022/03/01 12:46:27;;;;;;;2.73;2.53;;;26.60;46.10;;;;;;5056650;28;20441;-85
2022/03/01 12:48:55;;;;;;;2.20;2.00;;;26.60;46.10;;;;;;5056652;28;20461;-84
2022/03/01 12:51:23;;;;;;;2.57;2.37;;;26.60;46.10;;;;;;5056390;28;20461;-83
2022/03/01 12:53:54;;;;;;;2.63;2.43;;;26.60;46.20;;;;;;5056718;28;20445;-83